Terminal Aerodrome Forecast
Issued by NWS

Home | Current Version | Previous Version | Text Only | Print | Product List | Glossary On
Versions: 1 2 3 4 5 6 7 8 9 10 11 12 13 14 15 16 17 18 19 20 21 22 23 24
000
FTUS46 KSEW 221200 AAA
TAFSEA
TAF AMD
KSEA 221236Z 2213/2318 VRB03KT P6SM VCFG SKC
     FM221600 02005KT P6SM SKC
     FM222000 34008KT P6SM SCT250
     FM230500 03004KT P6SM SCT250=

USA.gov is the U.S. government's official web portal to all federal, state and local government web resources and services.